sensor_id;sensor_type;location;lat;lon;timestamp;temperature;humidity
46784;DHT22;32544;52.832;13.816;2023-07-13T00:00:10;26.70;44.50
46784;DHT22;32544;52.832;13.816;2023-07-13T00:01:16;26.70;44.50
46784;DHT22;32544;52.832;13.816;2023-07-13T00:02:16;26.70;44.50
46784;DHT22;32544;52.832;13.816;2023-07-13T00:03:17;26.70;44.50
46784;DHT22;32544;52.832;13.816;2023-07-13T00:04:19;26.70;44.50
46784;DHT22;32544;52.832;13.816;2023-07-13T00:05:20;26.70;44.60
46784;DHT22;32544;52.832;13.816;2023-07-13T00:06:21;26.70;44.60
46784;DHT22;32544;52.832;13.816;2023-07-13T00:07:22;26.70;44.60
46784;DHT22;32544;52.832;13.816;2023-07-13T00:08:24;26.70;44.60
46784;DHT22;32544;52.832;13.816;2023-07-13T00:09:24;26.70;44.60
46784;DHT22;32544;52.832;13.816;2023-07-13T00:10:25;26.60;44.60
46784;DHT22;32544;52.832;13.816;2023-07-13T00:11:26;26.60;45.20
46784;DHT22;32544;52.832;13.816;2023-07-13T00:12:37;26.60;44.60
46784;DHT22;32544;52.832;13.816;2023-07-13T00:13:38;26.60;44.60
46784;DHT22;32544;52.832;13.816;2023-07-13T00:14:39;26.70;44.70
46784;DHT22;32544;52.832;13.816;2023-07-13T00:15:40;26.60;44.60
46784;DHT22;32544;52.832;13.816;2023-07-13T00:16:41;26.60;44.60
46784;DHT22;32544;52.832;13.816;2023-07-13T00:17:43;26.60;44.60
46784;DHT22;32544;52.832;13.816;2023-07-13T00:18:47;26.70;44.60
46784;DHT22;32544;52.832;13.816;2023-07-13T00:19:48;26.70;44.60
46784;DHT22;32544;52.832;13.816;2023-07-13T00:20:48;26.70;44.60
46784;DHT22;32544;52.832;13.816;2023-07-13T00:21:49;26.70;44.60
46784;DHT22;32544;52.832;13.816;2023-07-13T00:22:50;26.70;44.60
46784;DHT22;32544;52.832;13.816;2023-07-13T00:23:52;26.70;44.60
46784;DHT22;32544;52.832;13.816;2023-07-13T00:24:53;26.70;44.60
46784;DHT22;32544;52.832;13.816;2023-07-13T00:25:55;26.70;44.60
46784;DHT22;32544;52.832;13.816;2023-07-13T00:26:57;26.70;44.60
46784;DHT22;32544;52.832;13.816;2023-07-13T00:27:58;26.70;44.60
46784;DHT22;32544;52.832;13.816;2023-07-13T00:28:59;26.70;44.60
46784;DHT22;32544;52.832;13.816;2023-07-13T00:29:59;26.70;44.60
46784;DHT22;32544;52.832;13.816;2023-07-13T00:31:00;26.70;44.60
46784;DHT22;32544;52.832;13.816;2023-07-13T00:32:02;26.70;44.60
46784;DHT22;32544;52.832;13.816;2023-07-13T00:33:02;26.70;44.60
46784;DHT22;32544;52.832;13.816;2023-07-13T00:34:03;26.70;44.60
46784;DHT22;32544;52.832;13.816;2023-07-13T00:35:04;26.70;44.60
46784;DHT22;32544;52.832;13.816;2023-07-13T00:36:04;26.70;44.60
46784;DHT22;32544;52.832;13.816;2023-07-13T00:37:06;26.70;44.60
46784;DHT22;32544;52.832;13.816;2023-07-13T00:38:07;26.70;44.60
46784;DHT22;32544;52.832;13.816;2023-07-13T00:39:07;26.70;44.60
46784;DHT22;32544;52.832;13.816;2023-07-13T00:40:09;26.70;44.60
46784;DHT22;32544;52.832;13.816;2023-07-13T00:41:10;26.70;44.60
46784;DHT22;32544;52.832;13.816;2023-07-13T00:42:11;26.70;44.60
46784;DHT22;32544;52.832;13.816;2023-07-13T00:43:13;26.70;44.60
46784;DHT22;32544;52.832;13.816;2023-07-13T00:44:15;26.70;44.60
46784;DHT22;32544;52.832;13.816;2023-07-13T00:46:27;26.70;44.60
46784;DHT22;32544;52.832;13.816;2023-07-13T00:47:28;26.70;44.60
46784;DHT22;32544;52.832;13.816;2023-07-13T00:48:29;26.70;44.60
46784;DHT22;32544;52.832;13.816;2023-07-13T00:49:31;26.70;44.60
46784;DHT22;32544;52.832;13.816;2023-07-13T00:50:32;26.70;44.60
46784;DHT22;32544;52.832;13.816;2023-07-13T00:51:36;26.70;44.60
46784;DHT22;32544;52.832;13.816;2023-07-13T00:52:40;26.70;44.60
46784;DHT22;32544;52.832;13.816;2023-07-13T00:53:41;26.70;44.60
46784;DHT22;32544;52.832;13.816;2023-07-13T00:54:43;26.70;44.60
46784;DHT22;32544;52.832;13.816;2023-07-13T00:55:45;26.70;44.60
46784;DHT22;32544;52.832;13.816;2023-07-13T00:56:48;26.70;44.60
46784;DHT22;32544;52.832;13.816;2023-07-13T00:57:50;26.70;44.60
46784;DHT22;32544;52.832;13.816;2023-07-13T00:58:50;26.70;44.60
46784;DHT22;32544;52.832;13.816;2023-07-13T00:59:54;26.70;44.60
46784;DHT22;32544;52.832;13.816;2023-07-13T01:00:55;26.70;44.60
46784;DHT22;32544;52.832;13.816;2023-07-13T01:01:56;26.70;44.60
46784;DHT22;32544;52.832;13.816;2023-07-13T01:02:57;26.70;44.60
46784;DHT22;32544;52.832;13.816;2023-07-13T01:04:00;26.70;44.60
46784;DHT22;32544;52.832;13.816;2023-07-13T01:05:00;26.70;44.60
46784;DHT22;32544;52.832;13.816;2023-07-13T01:06:02;26.70;44.60
46784;DHT22;32544;52.832;13.816;2023-07-13T01:07:03;26.70;44.60
46784;DHT22;32544;52.832;13.816;2023-07-13T01:08:04;26.70;44.60
46784;DHT22;32544;52.832;13.816;2023-07-13T01:09:07;26.70;44.60
46784;DHT22;32544;52.832;13.816;2023-07-13T01:10:08;26.70;44.60
46784;DHT22;32544;52.832;13.816;2023-07-13T01:11:08;26.70;44.60
46784;DHT22;32544;52.832;13.816;2023-07-13T01:12:09;26.70;44.60
46784;DHT22;32544;52.832;13.816;2023-07-13T01:13:10;26.70;45.30
46784;DHT22;32544;52.832;13.816;2023-07-13T01:14:11;26.70;44.60
46784;DHT22;32544;52.832;13.816;2023-07-13T01:16:31;26.70;44.60
46784;DHT22;32544;52.832;13.816;2023-07-13T01:17:33;26.70;44.60
46784;DHT22;32544;52.832;13.816;2023-07-13T01:18:34;26.70;44.60
46784;DHT22;32544;52.832;13.816;2023-07-13T01:19:36;26.70;44.60
46784;DHT22;32544;52.832;13.816;2023-07-13T01:20:37;26.70;44.60
46784;DHT22;32544;52.832;13.816;2023-07-13T01:21:38;26.70;44.60
46784;DHT22;32544;52.832;13.816;2023-07-13T01:22:43;26.70;44.60
46784;DHT22;32544;52.832;13.816;2023-07-13T01:23:44;26.70;44.70
46784;DHT22;32544;52.832;13.816;2023-07-13T01:24:45;26.70;44.70
46784;DHT22;32544;52.832;13.816;2023-07-13T01:25:46;26.70;44.70
46784;DHT22;32544;52.832;13.816;2023-07-13T01:26:47;26.70;44.80
46784;DHT22;32544;52.832;13.816;2023-07-13T01:27:47;26.70;44.70
46784;DHT22;32544;52.832;13.816;2023-07-13T01:28:48;26.70;44.80
46784;DHT22;32544;52.832;13.816;2023-07-13T01:29:49;26.70;44.80
46784;DHT22;32544;52.832;13.816;2023-07-13T01:30:50;26.70;44.70
46784;DHT22;32544;52.832;13.816;2023-07-13T01:31:50;26.60;44.70
46784;DHT22;32544;52.832;13.816;2023-07-13T01:32:51;26.60;44.80
46784;DHT22;32544;52.832;13.816;2023-07-13T01:33:52;26.60;44.70
46784;DHT22;32544;52.832;13.816;2023-07-13T01:34:55;26.60;44.70
46784;DHT22;32544;52.832;13.816;2023-07-13T01:35:55;26.60;44.70
46784;DHT22;32544;52.832;13.816;2023-07-13T01:36:59;26.60;44.70
46784;DHT22;32544;52.832;13.816;2023-07-13T01:37:59;26.60;44.70
46784;DHT22;32544;52.832;13.816;2023-07-13T01:39:02;26.60;44.80
46784;DHT22;32544;52.832;13.816;2023-07-13T01:40:03;26.70;44.80
46784;DHT22;32544;52.832;13.816;2023-07-13T01:41:05;26.60;44.70
46784;DHT22;32544;52.832;13.816;2023-07-13T01:42:06;26.60;44.80
46784;DHT22;32544;52.832;13.816;2023-07-13T01:43:06;26.70;44.80
46784;DHT22;32544;52.832;13.816;2023-07-13T01:44:07;26.60;44.70
46784;DHT22;32544;52.832;13.816;2023-07-13T01:45:07;26.70;44.80
46784;DHT22;32544;52.832;13.816;2023-07-13T01:46:08;26.70;44.80
46784;DHT22;32544;52.832;13.816;2023-07-13T01:47:09;26.60;44.70
46784;DHT22;32544;52.832;13.816;2023-07-13T01:48:10;26.70;44.80
46784;DHT22;32544;52.832;13.816;2023-07-13T01:49:11;26.70;44.80
46784;DHT22;32544;52.832;13.816;2023-07-13T01:50:11;26.70;44.80
46784;DHT22;32544;52.832;13.816;2023-07-13T01:51:12;26.60;44.70
46784;DHT22;32544;52.832;13.816;2023-07-13T01:52:13;26.60;44.80
46784;DHT22;32544;52.832;13.816;2023-07-13T01:53:14;26.60;44.70
46784;DHT22;32544;52.832;13.816;2023-07-13T01:54:14;26.60;44.70
46784;DHT22;32544;52.832;13.816;2023-07-13T01:55:15;26.60;44.80
46784;DHT22;32544;52.832;13.816;2023-07-13T01:56:16;26.60;44.70
46784;DHT22;32544;52.832;13.816;2023-07-13T01:57:16;26.60;44.80
46784;DHT22;32544;52.832;13.816;2023-07-13T01:58:17;26.60;44.70
46784;DHT22;32544;52.832;13.816;2023-07-13T01:59:17;26.60;44.70
46784;DHT22;32544;52.832;13.816;2023-07-13T02:00:18;26.60;44.70
46784;DHT22;32544;52.832;13.816;2023-07-13T02:01:22;26.60;44.70
46784;DHT22;32544;52.832;13.816;2023-07-13T02:02:22;26.60;44.70
46784;DHT22;32544;52.832;13.816;2023-07-13T02:03:23;26.60;44.70
46784;DHT22;32544;52.832;13.816;2023-07-13T02:04:24;26.60;44.70
46784;DHT22;32544;52.832;13.816;2023-07-13T02:05:26;26.60;44.70
46784;DHT22;32544;52.832;13.816;2023-07-13T02:06:26;26.60;44.70
46784;DHT22;32544;52.832;13.816;2023-07-13T02:07:27;26.60;44.70
46784;DHT22;32544;52.832;13.816;2023-07-13T02:08:28;26.60;44.80
46784;DHT22;32544;52.832;13.816;2023-07-13T02:09:29;26.60;44.70
46784;DHT22;32544;52.832;13.816;2023-07-13T02:10:29;26.60;44.70
46784;DHT22;32544;52.832;13.816;2023-07-13T02:11:30;26.70;44.80
46784;DHT22;32544;52.832;13.816;2023-07-13T02:12:33;26.60;44.70
46784;DHT22;32544;52.832;13.816;2023-07-13T02:13:34;26.60;44.70
46784;DHT22;32544;52.832;13.816;2023-07-13T02:14:35;26.60;44.70
46784;DHT22;32544;52.832;13.816;2023-07-13T02:15:38;26.60;44.70
46784;DHT22;32544;52.832;13.816;2023-07-13T02:16:38;26.60;44.70
46784;DHT22;32544;52.832;13.816;2023-07-13T02:17:39;26.60;44.80
46784;DHT22;32544;52.832;13.816;2023-07-13T02:18:39;26.60;44.70
46784;DHT22;32544;52.832;13.816;2023-07-13T02:19:40;26.60;44.70
46784;DHT22;32544;52.832;13.816;2023-07-13T02:20:41;26.60;44.80
46784;DHT22;32544;52.832;13.816;2023-07-13T02:21:41;26.60;44.70
46784;DHT22;32544;52.832;13.816;2023-07-13T02:22:42;26.60;44.70
46784;DHT22;32544;52.832;13.816;2023-07-13T02:23:42;26.60;45.40
46784;DHT22;32544;52.832;13.816;2023-07-13T02:24:43;26.60;44.80
46784;DHT22;32544;52.832;13.816;2023-07-13T02:25:44;26.60;44.70
46784;DHT22;32544;52.832;13.816;2023-07-13T02:26:45;26.60;44.70
46784;DHT22;32544;52.832;13.816;2023-07-13T02:27:45;26.60;44.70
46784;DHT22;32544;52.832;13.816;2023-07-13T02:28:46;26.60;44.70
46784;DHT22;32544;52.832;13.816;2023-07-13T02:29:47;26.60;44.70
46784;DHT22;32544;52.832;13.816;2023-07-13T02:30:47;26.60;44.70
46784;DHT22;32544;52.832;13.816;2023-07-13T02:31:48;26.60;44.70
46784;DHT22;32544;52.832;13.816;2023-07-13T02:32:49;26.60;44.70
46784;DHT22;32544;52.832;13.816;2023-07-13T02:33:51;26.60;44.80
46784;DHT22;32544;52.832;13.816;2023-07-13T02:34:53;26.60;44.70
46784;DHT22;32544;52.832;13.816;2023-07-13T02:35:54;26.60;44.70
46784;DHT22;32544;52.832;13.816;2023-07-13T02:36:55;26.60;44.80
46784;DHT22;32544;52.832;13.816;2023-07-13T02:37:56;26.60;44.70
46784;DHT22;32544;52.832;13.816;2023-07-13T02:39:00;26.60;44.70
46784;DHT22;32544;52.832;13.816;2023-07-13T02:40:01;26.60;44.70
46784;DHT22;32544;52.832;13.816;2023-07-13T02:41:08;26.60;44.80
46784;DHT22;32544;52.832;13.816;2023-07-13T02:42:09;26.60;44.70
46784;DHT22;32544;52.832;13.816;2023-07-13T02:43:12;26.60;44.90
46784;DHT22;32544;52.832;13.816;2023-07-13T02:44:13;26.60;44.70
46784;DHT22;32544;52.832;13.816;2023-07-13T02:45:14;26.60;44.70
46784;DHT22;32544;52.832;13.816;2023-07-13T02:46:15;26.60;44.70
46784;DHT22;32544;52.832;13.816;2023-07-13T02:47:15;26.60;44.70
46784;DHT22;32544;52.832;13.816;2023-07-13T02:48:16;26.60;44.70
46784;DHT22;32544;52.832;13.816;2023-07-13T02:49:17;26.60;44.80
46784;DHT22;32544;52.832;13.816;2023-07-13T02:50:18;26.60;44.70
46784;DHT22;32544;52.832;13.816;2023-07-13T02:51:18;26.60;44.70
46784;DHT22;32544;52.832;13.816;2023-07-13T02:52:19;26.60;44.70
46784;DHT22;32544;52.832;13.816;2023-07-13T02:53:20;26.60;44.70
46784;DHT22;32544;52.832;13.816;2023-07-13T02:54:20;26.60;44.70
46784;DHT22;32544;52.832;13.816;2023-07-13T02:55:21;26.50;44.70
46784;DHT22;32544;52.832;13.816;2023-07-13T02:56:23;26.60;44.70
46784;DHT22;32544;52.832;13.816;2023-07-13T02:57:25;26.50;44.70
46784;DHT22;32544;52.832;13.816;2023-07-13T02:58:26;26.60;45.40
46784;DHT22;32544;52.832;13.816;2023-07-13T02:59:26;26.50;44.60
46784;DHT22;32544;52.832;13.816;2023-07-13T03:00:27;26.60;44.70
46784;DHT22;32544;52.832;13.816;2023-07-13T03:01:28;26.60;44.70
46784;DHT22;32544;52.832;13.816;2023-07-13T03:02:28;26.50;44.70
46784;DHT22;32544;52.832;13.816;2023-07-13T03:03:29;26.60;44.70
46784;DHT22;32544;52.832;13.816;2023-07-13T03:04:30;26.60;44.70
46784;DHT22;32544;52.832;13.816;2023-07-13T03:05:30;26.60;44.70
46784;DHT22;32544;52.832;13.816;2023-07-13T03:06:32;26.60;44.70
46784;DHT22;32544;52.832;13.816;2023-07-13T03:07:33;26.60;44.70
46784;DHT22;32544;52.832;13.816;2023-07-13T03:08:34;26.60;44.70
46784;DHT22;32544;52.832;13.816;2023-07-13T03:09:35;26.60;44.80
46784;DHT22;32544;52.832;13.816;2023-07-13T03:10:36;26.60;44.70
46784;DHT22;32544;52.832;13.816;2023-07-13T03:11:38;26.60;44.70
46784;DHT22;32544;52.832;13.816;2023-07-13T03:12:53;26.60;44.70
46784;DHT22;32544;52.832;13.816;2023-07-13T03:13:58;26.60;44.70
46784;DHT22;32544;52.832;13.816;2023-07-13T03:14:59;26.60;44.70
46784;DHT22;32544;52.832;13.816;2023-07-13T03:16:00;26.60;44.70
46784;DHT22;32544;52.832;13.816;2023-07-13T03:17:00;26.50;44.70
46784;DHT22;32544;52.832;13.816;2023-07-13T03:18:05;26.50;44.70
46784;DHT22;32544;52.832;13.816;2023-07-13T03:19:06;26.50;44.60
46784;DHT22;32544;52.832;13.816;2023-07-13T03:20:07;26.50;44.60
46784;DHT22;32544;52.832;13.816;2023-07-13T03:21:08;26.50;44.60
46784;DHT22;32544;52.832;13.816;2023-07-13T03:22:09;26.50;44.60
46784;DHT22;32544;52.832;13.816;2023-07-13T03:23:09;26.50;44.60
46784;DHT22;32544;52.832;13.816;2023-07-13T03:24:10;26.50;44.60
46784;DHT22;32544;52.832;13.816;2023-07-13T03:25:10;26.60;44.80
46784;DHT22;32544;52.832;13.816;2023-07-13T03:26:16;26.60;44.70
46784;DHT22;32544;52.832;13.816;2023-07-13T03:27:17;26.50;44.60
46784;DHT22;32544;52.832;13.816;2023-07-13T03:28:18;26.50;45.30
46784;DHT22;32544;52.832;13.816;2023-07-13T03:29:19;26.60;44.80
46784;DHT22;32544;52.832;13.816;2023-07-13T03:30:20;26.50;44.70
46784;DHT22;32544;52.832;13.816;2023-07-13T03:31:25;26.50;44.70
46784;DHT22;32544;52.832;13.816;2023-07-13T03:32:26;26.50;44.60
46784;DHT22;32544;52.832;13.816;2023-07-13T03:33:27;26.60;44.70
46784;DHT22;32544;52.832;13.816;2023-07-13T03:34:28;26.50;44.60
46784;DHT22;32544;52.832;13.816;2023-07-13T03:35:29;26.60;44.80
46784;DHT22;32544;52.832;13.816;2023-07-13T03:36:30;26.50;44.60
46784;DHT22;32544;52.832;13.816;2023-07-13T03:37:34;26.50;44.60
46784;DHT22;32544;52.832;13.816;2023-07-13T03:38:35;26.50;44.60
46784;DHT22;32544;52.832;13.816;2023-07-13T03:39:37;26.50;44.60
46784;DHT22;32544;52.832;13.816;2023-07-13T03:40:38;26.50;44.60
46784;DHT22;32544;52.832;13.816;2023-07-13T03:41:38;26.40;44.60
46784;DHT22;32544;52.832;13.816;2023-07-13T03:42:39;26.50;44.70
46784;DHT22;32544;52.832;13.816;2023-07-13T03:43:41;26.50;45.40
46784;DHT22;32544;52.832;13.816;2023-07-13T03:44:42;26.40;44.60
46784;DHT22;32544;52.832;13.816;2023-07-13T03:45:46;26.50;44.70
46784;DHT22;32544;52.832;13.816;2023-07-13T03:46:47;26.50;44.70
46784;DHT22;32544;52.832;13.816;2023-07-13T03:47:48;26.50;44.70
46784;DHT22;32544;52.832;13.816;2023-07-13T03:48:52;26.50;44.70
46784;DHT22;32544;52.832;13.816;2023-07-13T03:49:52;26.50;44.60
46784;DHT22;32544;52.832;13.816;2023-07-13T03:50:54;26.50;44.60
46784;DHT22;32544;52.832;13.816;2023-07-13T03:51:55;26.50;44.60
46784;DHT22;32544;52.832;13.816;2023-07-13T03:52:57;26.50;44.60
46784;DHT22;32544;52.832;13.816;2023-07-13T03:53:58;26.50;44.60
46784;DHT22;32544;52.832;13.816;2023-07-13T03:54:59;26.50;44.60
46784;DHT22;32544;52.832;13.816;2023-07-13T03:55:59;26.50;44.60
46784;DHT22;32544;52.832;13.816;2023-07-13T03:57:00;26.50;44.70
46784;DHT22;32544;52.832;13.816;2023-07-13T03:58:24;26.50;44.60
46784;DHT22;32544;52.832;13.816;2023-07-13T03:59:24;26.50;44.60
46784;DHT22;32544;52.832;13.816;2023-07-13T04:00:25;26.40;44.60
46784;DHT22;32544;52.832;13.816;2023-07-13T04:01:28;26.40;44.60
46784;DHT22;32544;52.832;13.816;2023-07-13T04:02:28;26.40;44.60
46784;DHT22;32544;52.832;13.816;2023-07-13T04:03:29;26.40;45.30
46784;DHT22;32544;52.832;13.816;2023-07-13T04:04:30;26.50;44.70
46784;DHT22;32544;52.832;13.816;2023-07-13T04:05:31;26.50;44.70
46784;DHT22;32544;52.832;13.816;2023-07-13T04:06:31;26.50;44.60
46784;DHT22;32544;52.832;13.816;2023-07-13T04:07:32;26.50;44.70
46784;DHT22;32544;52.832;13.816;2023-07-13T04:08:35;26.50;44.70
46784;DHT22;32544;52.832;13.816;2023-07-13T04:09:36;26.50;44.60
46784;DHT22;32544;52.832;13.816;2023-07-13T04:10:37;26.40;44.60
46784;DHT22;32544;52.832;13.816;2023-07-13T04:11:39;26.40;44.60
46784;DHT22;32544;52.832;13.816;2023-07-13T04:12:40;26.40;44.70
46784;DHT22;32544;52.832;13.816;2023-07-13T04:13:41;26.40;44.60
46784;DHT22;32544;52.832;13.816;2023-07-13T04:14:41;26.40;44.60
46784;DHT22;32544;52.832;13.816;2023-07-13T04:15:42;26.40;44.70
46784;DHT22;32544;52.832;13.816;2023-07-13T04:16:42;26.40;44.70
46784;DHT22;32544;52.832;13.816;2023-07-13T04:17:43;26.40;44.80
46784;DHT22;32544;52.832;13.816;2023-07-13T04:18:45;26.40;44.70
46784;DHT22;32544;52.832;13.816;2023-07-13T04:19:45;26.40;44.70
46784;DHT22;32544;52.832;13.816;2023-07-13T04:20:46;26.40;44.70
46784;DHT22;32544;52.832;13.816;2023-07-13T04:21:47;26.40;44.70
46784;DHT22;32544;52.832;13.816;2023-07-13T04:22:48;26.40;44.70
46784;DHT22;32544;52.832;13.816;2023-07-13T04:23:48;26.40;44.80
46784;DHT22;32544;52.832;13.816;2023-07-13T04:24:49;26.40;45.40
46784;DHT22;32544;52.832;13.816;2023-07-13T04:25:51;26.40;44.80
46784;DHT22;32544;52.832;13.816;2023-07-13T04:26:53;26.40;44.80
46784;DHT22;32544;52.832;13.816;2023-07-13T04:27:53;26.40;44.70
46784;DHT22;32544;52.832;13.816;2023-07-13T04:28:54;26.40;44.80
46784;DHT22;32544;52.832;13.816;2023-07-13T04:29:55;26.40;44.80
46784;DHT22;32544;52.832;13.816;2023-07-13T04:30:56;26.40;44.70
46784;DHT22;32544;52.832;13.816;2023-07-13T04:31:56;26.40;44.70
46784;DHT22;32544;52.832;13.816;2023-07-13T04:32:57;26.40;44.70
46784;DHT22;32544;52.832;13.816;2023-07-13T04:33:57;26.40;44.70
46784;DHT22;32544;52.832;13.816;2023-07-13T04:34:58;26.40;44.80
46784;DHT22;32544;52.832;13.816;2023-07-13T04:35:59;26.40;44.70
46784;DHT22;32544;52.832;13.816;2023-07-13T04:37:02;26.40;44.70
46784;DHT22;32544;52.832;13.816;2023-07-13T04:38:03;26.40;44.80
46784;DHT22;32544;52.832;13.816;2023-07-13T04:39:04;26.40;44.80
46784;DHT22;32544;52.832;13.816;2023-07-13T04:40:04;26.40;44.80
46784;DHT22;32544;52.832;13.816;2023-07-13T04:41:07;26.40;44.80
46784;DHT22;32544;52.832;13.816;2023-07-13T04:42:08;26.40;44.80
46784;DHT22;32544;52.832;13.816;2023-07-13T04:43:08;26.50;44.80
46784;DHT22;32544;52.832;13.816;2023-07-13T04:44:09;26.40;44.80
46784;DHT22;32544;52.832;13.816;2023-07-13T04:45:09;26.40;44.80
46784;DHT22;32544;52.832;13.816;2023-07-13T04:46:11;26.40;44.80
46784;DHT22;32544;52.832;13.816;2023-07-13T04:47:12;26.40;44.80
46784;DHT22;32544;52.832;13.816;2023-07-13T04:48:13;26.40;44.80
46784;DHT22;32544;52.832;13.816;2023-07-13T04:49:13;26.40;44.80
46784;DHT22;32544;52.832;13.816;2023-07-13T04:50:14;26.40;44.80
46784;DHT22;32544;52.832;13.816;2023-07-13T04:51:21;26.40;44.80
46784;DHT22;32544;52.832;13.816;2023-07-13T04:52:21;26.40;44.80
46784;DHT22;32544;52.832;13.816;2023-07-13T04:53:22;26.40;44.80
46784;DHT22;32544;52.832;13.816;2023-07-13T04:54:23;26.40;44.80
46784;DHT22;32544;52.832;13.816;2023-07-13T04:55:23;26.40;44.80
46784;DHT22;32544;52.832;13.816;2023-07-13T04:56:24;26.50;44.80
46784;DHT22;32544;52.832;13.816;2023-07-13T04:57:25;26.40;44.80
46784;DHT22;32544;52.832;13.816;2023-07-13T04:58:25;26.40;44.80
46784;DHT22;32544;52.832;13.816;2023-07-13T04:59:26;26.40;44.80
46784;DHT22;32544;52.832;13.816;2023-07-13T05:00:27;26.40;44.80
46784;DHT22;32544;52.832;13.816;2023-07-13T05:01:27;26.40;44.80
46784;DHT22;32544;52.832;13.816;2023-07-13T05:02:28;26.40;44.80
46784;DHT22;32544;52.832;13.816;2023-07-13T05:03:28;26.40;44.80
46784;DHT22;32544;52.832;13.816;2023-07-13T05:04:29;26.40;44.80
46784;DHT22;32544;52.832;13.816;2023-07-13T05:05:30;26.40;44.80
46784;DHT22;32544;52.832;13.816;2023-07-13T05:06:30;26.40;44.90
46784;DHT22;32544;52.832;13.816;2023-07-13T05:07:31;26.40;44.90
46784;DHT22;32544;52.832;13.816;2023-07-13T05:08:33;26.40;44.90
46784;DHT22;32544;52.832;13.816;2023-07-13T05:09:34;26.40;44.90
46784;DHT22;32544;52.832;13.816;2023-07-13T05:10:35;26.40;44.90
46784;DHT22;32544;52.832;13.816;2023-07-13T05:11:36;26.40;44.90
46784;DHT22;32544;52.832;13.816;2023-07-13T05:12:36;26.40;44.90
46784;DHT22;32544;52.832;13.816;2023-07-13T05:13:37;26.40;44.90
46784;DHT22;32544;52.832;13.816;2023-07-13T05:14:37;26.40;45.00
46784;DHT22;32544;52.832;13.816;2023-07-13T05:15:38;26.40;45.00
46784;DHT22;32544;52.832;13.816;2023-07-13T05:16:38;26.40;45.00
46784;DHT22;32544;52.832;13.816;2023-07-13T05:17:39;26.40;45.00
46784;DHT22;32544;52.832;13.816;2023-07-13T05:18:40;26.40;45.00
46784;DHT22;32544;52.832;13.816;2023-07-13T05:19:41;26.40;45.00
46784;DHT22;32544;52.832;13.816;2023-07-13T05:20:42;26.40;45.10
46784;DHT22;32544;52.832;13.816;2023-07-13T05:21:42;26.40;45.00
46784;DHT22;32544;52.832;13.816;2023-07-13T05:22:43;26.40;45.00
46784;DHT22;32544;52.832;13.816;2023-07-13T05:23:44;26.40;45.00
46784;DHT22;32544;52.832;13.816;2023-07-13T05:24:44;26.40;45.00
46784;DHT22;32544;52.832;13.816;2023-07-13T05:25:45;26.40;45.00
46784;DHT22;32544;52.832;13.816;2023-07-13T05:26:45;26.40;45.00
46784;DHT22;32544;52.832;13.816;2023-07-13T05:27:46;26.40;45.00
46784;DHT22;32544;52.832;13.816;2023-07-13T05:28:47;26.40;45.00
46784;DHT22;32544;52.832;13.816;2023-07-13T05:29:48;26.40;45.00
46784;DHT22;32544;52.832;13.816;2023-07-13T05:30:49;26.40;45.00
46784;DHT22;32544;52.832;13.816;2023-07-13T05:31:49;26.40;45.00
46784;DHT22;32544;52.832;13.816;2023-07-13T05:32:50;26.40;45.00
46784;DHT22;32544;52.832;13.816;2023-07-13T05:33:51;26.40;44.90
46784;DHT22;32544;52.832;13.816;2023-07-13T05:34:51;26.40;44.90
46784;DHT22;32544;52.832;13.816;2023-07-13T05:35:52;26.50;45.00
46784;DHT22;32544;52.832;13.816;2023-07-13T05:36:52;26.50;45.00
46784;DHT22;32544;52.832;13.816;2023-07-13T05:37:53;26.40;44.90
46784;DHT22;32544;52.832;13.816;2023-07-13T05:38:53;26.40;44.90
46784;DHT22;32544;52.832;13.816;2023-07-13T05:39:54;26.40;44.90
46784;DHT22;32544;52.832;13.816;2023-07-13T05:40:55;26.40;44.90
46784;DHT22;32544;52.832;13.816;2023-07-13T05:41:56;26.50;45.00
46784;DHT22;32544;52.832;13.816;2023-07-13T05:42:56;26.40;45.00
46784;DHT22;32544;52.832;13.816;2023-07-13T05:43:57;26.40;45.00
46784;DHT22;32544;52.832;13.816;2023-07-13T05:44:57;26.40;45.10
46784;DHT22;32544;52.832;13.816;2023-07-13T05:45:58;26.40;45.10
46784;DHT22;32544;52.832;13.816;2023-07-13T05:46:59;26.40;45.10
46784;DHT22;32544;52.832;13.816;2023-07-13T05:47:59;26.40;45.10
46784;DHT22;32544;52.832;13.816;2023-07-13T05:49:00;26.40;45.10
46784;DHT22;32544;52.832;13.816;2023-07-13T05:50:00;26.40;45.10
46784;DHT22;32544;52.832;13.816;2023-07-13T05:51:01;26.40;45.10
46784;DHT22;32544;52.832;13.816;2023-07-13T05:52:01;26.40;45.10
46784;DHT22;32544;52.832;13.816;2023-07-13T05:53:02;26.40;45.20
46784;DHT22;32544;52.832;13.816;2023-07-13T05:54:03;26.40;45.20
46784;DHT22;32544;52.832;13.816;2023-07-13T05:55:03;26.40;45.20
46784;DHT22;32544;52.832;13.816;2023-07-13T05:56:04;26.40;45.30
46784;DHT22;32544;52.832;13.816;2023-07-13T05:57:05;26.40;45.20
46784;DHT22;32544;52.832;13.816;2023-07-13T05:58:05;26.40;45.30
46784;DHT22;32544;52.832;13.816;2023-07-13T05:59:06;26.40;45.30
46784;DHT22;32544;52.832;13.816;2023-07-13T06:00:06;26.40;45.30
46784;DHT22;32544;52.832;13.816;2023-07-13T06:01:13;26.40;45.30
46784;DHT22;32544;52.832;13.816;2023-07-13T06:02:14;26.30;45.30
46784;DHT22;32544;52.832;13.816;2023-07-13T06:03:15;26.30;45.30
46784;DHT22;32544;52.832;13.816;2023-07-13T06:04:15;26.30;45.30
46784;DHT22;32544;52.832;13.816;2023-07-13T06:05:16;26.30;45.30
46784;DHT22;32544;52.832;13.816;2023-07-13T06:06:17;26.30;45.30
46784;DHT22;32544;52.832;13.816;2023-07-13T06:07:17;26.30;45.30
46784;DHT22;32544;52.832;13.816;2023-07-13T06:08:18;26.30;45.30
46784;DHT22;32544;52.832;13.816;2023-07-13T06:09:19;26.30;45.30
46784;DHT22;32544;52.832;13.816;2023-07-13T06:10:19;26.30;45.30
46784;DHT22;32544;52.832;13.816;2023-07-13T06:11:21;26.30;45.30
46784;DHT22;32544;52.832;13.816;2023-07-13T06:12:22;26.30;45.30
46784;DHT22;32544;52.832;13.816;2023-07-13T06:13:23;26.30;45.30
46784;DHT22;32544;52.832;13.816;2023-07-13T06:14:23;26.30;45.30
46784;DHT22;32544;52.832;13.816;2023-07-13T06:15:24;26.30;45.30
46784;DHT22;32544;52.832;13.816;2023-07-13T06:16:24;26.30;45.30
46784;DHT22;32544;52.832;13.816;2023-07-13T06:17:25;26.30;45.30
46784;DHT22;32544;52.832;13.816;2023-07-13T06:18:25;26.30;45.30
46784;DHT22;32544;52.832;13.816;2023-07-13T06:19:26;26.30;45.30
46784;DHT22;32544;52.832;13.816;2023-07-13T06:20:28;26.30;45.30
46784;DHT22;32544;52.832;13.816;2023-07-13T06:21:29;26.30;45.30
46784;DHT22;32544;52.832;13.816;2023-07-13T06:22:30;26.30;45.30